createdAt,value
2023-05-10T00:00:30.565Z,101989.44
2023-05-10T00:02:58.156Z,101985.03
2023-05-10T00:05:25.307Z,101980.53
2023-05-10T00:07:52.356Z,101982.00
2023-05-10T00:10:19.535Z,101985.44
2023-05-10T00:12:46.824Z,101984.38
2023-05-10T00:15:14.131Z,101980.78
2023-05-10T00:17:41.187Z,101982.22
2023-05-10T00:20:08.673Z,101983.00
2023-05-10T00:22:36.065Z,101986.44
2023-05-10T00:25:03.249Z,101985.38
2023-05-10T00:27:30.361Z,101984.34
2023-05-10T00:29:57.443Z,101980.78
2023-05-10T00:32:24.685Z,101988.41
2023-05-10T00:34:52.653Z,101975.31
2023-05-10T00:37:19.870Z,101976.91
2023-05-10T00:39:46.902Z,101974.97
2023-05-10T00:42:14.023Z,101980.91
2023-05-10T00:44:42.430Z,101974.59
2023-05-10T00:47:10.095Z,101978.75
2023-05-10T00:49:37.607Z,101974.41
2023-05-10T00:52:05.472Z,101966.34
2023-05-10T00:54:32.681Z,101969.66
2023-05-10T00:57:00.140Z,101963.34
2023-05-10T00:59:27.292Z,101966.59
2023-05-10T01:01:54.540Z,101965.72
2023-05-10T01:04:26.878Z,101947.16
2023-05-10T01:06:55.083Z,101970.00
2023-05-10T01:09:23.112Z,101960.81
2023-05-10T01:11:50.501Z,101957.38
2023-05-10T01:14:20.022Z,101963.38
2023-05-10T01:16:49.318Z,101970.25
2023-05-10T01:19:22.644Z,101963.03
2023-05-10T01:21:55.537Z,101965.56
2023-05-10T01:24:29.281Z,101967.25
2023-05-10T01:27:16.312Z,101961.63
2023-05-10T01:29:58.176Z,101957.03
2023-05-10T01:32:45.378Z,101959.44
2023-05-10T01:35:18.633Z,101956.47
2023-05-10T01:37:53.824Z,101957.28
2023-05-10T01:40:28.687Z,101960.59
2023-05-10T01:43:00.268Z,101969.13
2023-05-10T01:45:33.751Z,101958.00
2023-05-10T01:48:08.832Z,101954.09
2023-05-10T01:50:38.132Z,101958.53
2023-05-10T01:53:09.302Z,101964.66
2023-05-10T01:55:40.626Z,101957.66
2023-05-10T01:58:09.557Z,101968.88
2023-05-10T02:00:37.020Z,101959.09
2023-05-10T02:03:07.106Z,101961.69
2023-05-10T02:05:36.399Z,101956.50
2023-05-10T02:08:05.151Z,101961.50
2023-05-10T02:10:33.006Z,101959.66
2023-05-10T02:13:01.244Z,101958.59
2023-05-10T02:15:29.098Z,101967.13
2023-05-10T02:17:57.525Z,101962.81
2023-05-10T02:20:26.495Z,101954.91
2023-05-10T02:22:55.619Z,101954.75
2023-05-10T02:25:23.434Z,101957.28
2023-05-10T02:27:51.559Z,101959.00
2023-05-10T02:30:19.645Z,101957.22
2023-05-10T02:32:47.367Z,101960.66
2023-05-10T02:35:14.719Z,101955.25
2023-05-10T02:37:42.934Z,101963.81
2023-05-10T02:40:10.660Z,101962.84
2023-05-10T02:42:39.053Z,101969.59
2023-05-10T02:45:13.430Z,101969.59
2023-05-10T02:47:40.838Z,101966.00
2023-05-10T02:50:08.587Z,101971.31
2023-05-10T02:52:40.372Z,101974.59
2023-05-10T02:55:10.729Z,101972.03
2023-05-10T02:57:40.383Z,101976.22
2023-05-10T03:00:08.689Z,101971.00
2023-05-10T03:02:37.733Z,101972.09
2023-05-10T03:05:05.527Z,101967.50
2023-05-10T03:07:33.061Z,101964.66
2023-05-10T03:10:00.441Z,101962.81
2023-05-10T03:12:27.963Z,101962.81
2023-05-10T03:15:15.835Z,101962.81
2023-05-10T03:17:43.046Z,101966.31
2023-05-10T03:20:12.864Z,101978.78
2023-05-10T03:22:45.626Z,101976.31
2023-05-10T03:25:13.750Z,101969.56
2023-05-10T03:27:43.027Z,101963.38
2023-05-10T03:30:12.228Z,101965.19
2023-05-10T03:32:39.619Z,101967.31
2023-05-10T03:35:14.697Z,101958.06
2023-05-10T03:37:42.463Z,101952.84
2023-05-10T03:40:10.622Z,101949.19
2023-05-10T03:42:40.130Z,101944.78
2023-05-10T03:45:07.646Z,101949.13
2023-05-10T03:47:35.078Z,101942.09
2023-05-10T03:50:02.114Z,101938.53
2023-05-10T03:52:29.257Z,101942.72
2023-05-10T03:54:56.581Z,101940.84
2023-05-10T03:57:24.371Z,101946.00
2023-05-10T03:59:51.597Z,101940.59
2023-05-10T04:02:18.825Z,101940.38
2023-05-10T04:04:46.257Z,101939.56
2023-05-10T04:07:13.343Z,101937.56
2023-05-10T04:09:40.716Z,101937.56
2023-05-10T04:12:10.139Z,101936.84
2023-05-10T04:14:38.591Z,101936.97
2023-05-10T04:17:06.047Z,101938.88
2023-05-10T04:19:33.607Z,101940.53
2023-05-10T04:22:01.010Z,101950.41
2023-05-10T04:24:27.988Z,101948.84
2023-05-10T04:26:57.762Z,101947.31
2023-05-10T04:29:28.786Z,101947.41
2023-05-10T04:31:57.046Z,101943.16
2023-05-10T04:34:24.330Z,101943.97
2023-05-10T04:36:51.700Z,101945.97
2023-05-10T04:39:19.148Z,101959.97
2023-05-10T04:41:46.435Z,101956.34
2023-05-10T04:44:17.096Z,101950.34
2023-05-10T04:46:44.358Z,101952.84
2023-05-10T04:49:15.649Z,101943.34
2023-05-10T04:51:42.999Z,101945.00
2023-05-10T04:54:10.243Z,101948.56
2023-05-10T04:56:37.640Z,101947.91
2023-05-10T04:59:05.139Z,101955.16
2023-05-10T05:01:32.277Z,101955.31
2023-05-10T05:03:59.948Z,101948.31
2023-05-10T05:06:28.543Z,101950.22
2023-05-10T05:08:55.740Z,101961.72
2023-05-10T05:11:24.077Z,101952.22
2023-05-10T05:13:56.193Z,101959.44
2023-05-10T05:16:33.951Z,101959.44
2023-05-10T05:19:02.003Z,101954.47
2023-05-10T05:21:30.536Z,101961.69
2023-05-10T05:23:57.831Z,101962.69
2023-05-10T05:26:25.053Z,101964.59
2023-05-10T05:28:56.883Z,101967.41
2023-05-10T05:31:27.801Z,101971.88
2023-05-10T05:33:56.099Z,101910.75
2023-05-10T05:36:23.849Z,101965.22
2023-05-10T05:38:57.616Z,101962.84
2023-05-10T05:41:27.957Z,101970.06
2023-05-10T05:43:55.732Z,101979.94
2023-05-10T05:46:23.666Z,101982.75
2023-05-10T05:48:50.890Z,101988.94
2023-05-10T05:51:18.518Z,101987.41
2023-05-10T05:53:45.595Z,101998.03
2023-05-10T05:56:12.733Z,102003.47
2023-05-10T05:58:39.849Z,102003.66
2023-05-10T06:01:07.042Z,102008.31
2023-05-10T06:03:34.588Z,102005.03
2023-05-10T06:06:01.627Z,102007.06
2023-05-10T06:08:28.826Z,102010.78
2023-05-10T06:10:55.945Z,101991.84
2023-05-10T06:13:23.068Z,102002.50
2023-05-10T06:15:50.467Z,102002.63
2023-05-10T06:18:17.450Z,102004.59
2023-05-10T06:20:44.564Z,101999.47
2023-05-10T06:23:11.881Z,102000.47
2023-05-10T06:25:39.322Z,101997.13
2023-05-10T06:28:06.419Z,102006.88
2023-05-10T06:30:33.891Z,101999.06
2023-05-10T06:33:01.234Z,102010.41
2023-05-10T06:35:28.251Z,102009.75
2023-05-10T06:37:57.424Z,102014.28
2023-05-10T06:40:28.996Z,102008.44
2023-05-10T06:42:56.834Z,102003.44
2023-05-10T06:45:24.492Z,102004.59
2023-05-10T06:47:58.596Z,102009.22
2023-05-10T06:50:26.487Z,102003.56
2023-05-10T06:52:53.586Z,102003.09
2023-05-10T06:55:20.911Z,102008.63
2023-05-10T06:57:58.176Z,102010.56
2023-05-10T07:00:32.940Z,102009.19
2023-05-10T07:03:02.106Z,102006.81
2023-05-10T07:05:30.873Z,102006.16
2023-05-10T07:07:59.276Z,102008.22
2023-05-10T07:10:26.951Z,102009.47
2023-05-10T07:12:55.051Z,101996.91
2023-05-10T07:15:22.541Z,102000.69
2023-05-10T07:17:49.678Z,101999.19
2023-05-10T07:20:17.355Z,102008.31
2023-05-10T07:22:44.557Z,102003.31
2023-05-10T07:25:12.212Z,101997.41
2023-05-10T07:27:39.540Z,102002.00
2023-05-10T07:30:09.653Z,102000.59
2023-05-10T07:32:37.028Z,101997.94
2023-05-10T07:35:04.712Z,101994.63
2023-05-10T07:37:32.099Z,102002.66
2023-05-10T07:39:59.243Z,101996.69
2023-05-10T07:42:26.477Z,102004.56
2023-05-10T07:44:54.316Z,101985.38
2023-05-10T07:47:21.891Z,101996.53
2023-05-10T07:49:48.971Z,101992.06
2023-05-10T07:52:16.988Z,101999.72
2023-05-10T07:54:44.222Z,101998.06
2023-05-10T07:57:11.223Z,101996.44
2023-05-10T07:59:38.293Z,101994.72
2023-05-10T08:02:05.641Z,101990.94
2023-05-10T08:04:33.201Z,102001.66
2023-05-10T08:07:00.278Z,102004.34
2023-05-10T08:09:27.317Z,102003.44
2023-05-10T08:11:54.964Z,102002.72
2023-05-10T08:14:22.178Z,102000.22
2023-05-10T08:16:49.415Z,101998.50
2023-05-10T08:19:20.180Z,101990.78
2023-05-10T08:21:47.323Z,101988.41
2023-05-10T08:24:14.425Z,101994.63
2023-05-10T08:26:41.625Z,101993.84
2023-05-10T08:29:09.209Z,101991.38
2023-05-10T08:31:36.450Z,101993.19
2023-05-10T08:34:03.553Z,101992.41
2023-05-10T08:36:31.192Z,101997.97
2023-05-10T08:38:58.252Z,101986.94
2023-05-10T08:41:27.563Z,101996.91
2023-05-10T08:43:55.296Z,101987.56
2023-05-10T08:46:23.535Z,101983.69
2023-05-10T08:48:56.136Z,101977.97
2023-05-10T08:51:29.206Z,101973.63
2023-05-10T08:54:00.523Z,101974.59
2023-05-10T08:56:28.281Z,101980.59
2023-05-10T08:58:56.611Z,101972.44
2023-05-10T09:01:23.918Z,101979.13
2023-05-10T09:03:51.969Z,101967.53
2023-05-10T09:06:19.587Z,101981.50
2023-05-10T09:08:47.175Z,101976.34
2023-05-10T09:11:14.550Z,101969.63
2023-05-10T09:13:41.922Z,101964.53
2023-05-10T09:16:20.425Z,101969.13
2023-05-10T09:18:51.421Z,101963.88
2023-05-10T09:21:20.648Z,101967.75
2023-05-10T09:23:51.414Z,101967.19
2023-05-10T09:26:18.690Z,101952.53
2023-05-10T09:28:55.965Z,101960.47
2023-05-10T09:31:23.565Z,101962.22
2023-05-10T09:33:51.217Z,101955.31
2023-05-10T09:36:18.457Z,101955.91
2023-05-10T09:38:53.290Z,101947.25
2023-05-10T09:41:21.921Z,101945.78
2023-05-10T09:43:50.385Z,101952.16
2023-05-10T09:46:18.078Z,101941.72
2023-05-10T09:48:46.338Z,101947.94
2023-05-10T09:51:23.385Z,101934.03
2023-05-10T09:54:09.797Z,101933.34
2023-05-10T09:56:38.797Z,101935.91
2023-05-10T09:59:07.758Z,101939.31
2023-05-10T10:01:37.317Z,101939.13
2023-05-10T10:04:06.158Z,101935.75
2023-05-10T10:06:45.002Z,101936.75
2023-05-10T10:09:12.337Z,101948.06
2023-05-10T10:11:40.094Z,101943.38
2023-05-10T10:14:07.476Z,101941.56
2023-05-10T10:16:34.869Z,101931.94
2023-05-10T10:19:02.667Z,101948.78
2023-05-10T10:21:32.013Z,101951.41
2023-05-10T10:23:59.338Z,101947.16
2023-05-10T10:26:26.765Z,101932.25
2023-05-10T10:29:12.621Z,101938.47
2023-05-10T10:31:43.828Z,101944.31
2023-05-10T10:34:16.017Z,101940.03
2023-05-10T10:36:47.517Z,101933.94
2023-05-10T10:39:18.007Z,101933.19
2023-05-10T10:41:53.916Z,101926.25
2023-05-10T10:44:27.736Z,101931.56
2023-05-10T10:47:15.768Z,101929.75
2023-05-10T10:49:46.993Z,101930.69
2023-05-10T10:52:44.041Z,101935.09
2023-05-10T10:55:15.488Z,101936.09
2023-05-10T10:57:43.185Z,101936.97
2023-05-10T11:00:21.892Z,101928.03
2023-05-10T11:02:50.699Z,101928.94
2023-05-10T11:05:30.144Z,101928.94
2023-05-10T11:07:58.123Z,101927.25
2023-05-10T11:10:25.960Z,101916.63
2023-05-10T11:13:05.006Z,101917.50
2023-05-10T11:15:34.500Z,101911.47
2023-05-10T11:18:17.819Z,101904.41
2023-05-10T11:20:45.983Z,101908.84
2023-05-10T11:23:14.553Z,101907.03
2023-05-10T11:25:45.676Z,101899.97
2023-05-10T11:28:18.156Z,101894.72
2023-05-10T11:30:50.017Z,101899.13
2023-05-10T11:33:18.776Z,101883.25
2023-05-10T11:35:46.663Z,101891.19
2023-05-10T11:38:15.762Z,101883.25
2023-05-10T11:40:43.551Z,101883.22
2023-05-10T11:43:11.827Z,101879.66
2023-05-10T11:45:40.306Z,101884.00
2023-05-10T11:48:07.783Z,101872.56
2023-05-10T11:50:34.947Z,101872.63
2023-05-10T11:53:02.113Z,101877.91
2023-05-10T11:55:31.483Z,101877.03
2023-05-10T11:58:02.862Z,101877.91
2023-05-10T12:00:30.966Z,101879.69
2023-05-10T12:03:01.947Z,101869.09
2023-05-10T12:05:32.993Z,101864.63
2023-05-10T12:08:14.581Z,101866.34
2023-05-10T12:10:42.229Z,101866.22
2023-05-10T12:13:14.447Z,101860.97
2023-05-10T12:15:42.695Z,101867.16
2023-05-10T12:18:21.268Z,101865.47
2023-05-10T12:20:48.903Z,101867.16
2023-05-10T12:23:17.008Z,101870.72
2023-05-10T12:25:44.557Z,101855.56
2023-05-10T12:28:11.697Z,101865.25
2023-05-10T12:30:39.368Z,101863.47
2023-05-10T12:33:10.743Z,101867.91
2023-05-10T12:35:54.455Z,101857.56
2023-05-10T12:38:33.625Z,101872.63
2023-05-10T12:41:01.726Z,101866.41
2023-05-10T12:43:29.849Z,101863.75
2023-05-10T12:45:58.265Z,101858.31
2023-05-10T12:48:29.329Z,101861.81
2023-05-10T12:50:57.617Z,101863.63
2023-05-10T12:53:25.581Z,101863.72
2023-05-10T12:55:53.785Z,101873.50
2023-05-10T13:00:55.072Z,101869.03
2023-05-10T13:03:26.070Z,101877.00
2023-05-10T13:05:56.180Z,101868.97
2023-05-10T13:08:23.621Z,101865.41
2023-05-10T13:10:51.547Z,101860.09
2023-05-10T13:13:20.885Z,101861.88
2023-05-10T13:15:52.170Z,101868.94
2023-05-10T13:18:20.178Z,101861.94
2023-05-10T13:20:57.797Z,101865.53
2023-05-10T13:23:25.277Z,101860.25
2023-05-10T13:25:55.172Z,101863.75
2023-05-10T13:28:22.577Z,101857.56
2023-05-10T13:30:49.577Z,101860.22
2023-05-10T13:33:17.777Z,101860.13
2023-05-10T13:35:45.112Z,101858.31
2023-05-10T13:38:13.217Z,101851.34
2023-05-10T13:40:42.058Z,101853.13
2023-05-10T13:43:10.262Z,101855.78
2023-05-10T13:45:37.982Z,101839.91
2023-05-10T13:48:06.392Z,101844.31
2023-05-10T13:50:34.076Z,101845.19
2023-05-10T13:53:02.525Z,101849.66
2023-05-10T13:55:30.633Z,101849.69
2023-05-10T13:57:57.879Z,101847.91
2023-05-10T14:00:25.029Z,101838.13
2023-05-10T14:02:52.053Z,101834.56
2023-05-10T14:05:23.830Z,101845.19
2023-05-10T14:07:54.042Z,101839.91
2023-05-10T14:10:21.599Z,101857.63
2023-05-10T14:12:49.022Z,101851.44
2023-05-10T14:15:16.412Z,101847.00
2023-05-10T14:17:43.600Z,101850.56
2023-05-10T14:20:12.112Z,101842.63
2023-05-10T14:22:39.227Z,101836.44
2023-05-10T14:25:06.218Z,101843.47
2023-05-10T14:27:34.052Z,101847.03
2023-05-10T14:30:01.044Z,101839.91
2023-05-10T14:32:29.232Z,101831.06
2023-05-10T14:34:58.707Z,101827.50
2023-05-10T14:37:26.107Z,101830.19
2023-05-10T14:39:53.716Z,101826.66
2023-05-10T14:42:20.732Z,101825.78
2023-05-10T14:44:47.790Z,101831.94
2023-05-10T14:47:14.971Z,101820.53
2023-05-10T14:49:43.186Z,101822.31
2023-05-10T14:52:10.463Z,101826.72
2023-05-10T14:54:38.599Z,101821.34
2023-05-10T14:57:05.871Z,101815.25
2023-05-10T14:59:32.924Z,101820.53
2023-05-10T15:02:03.762Z,101814.34
2023-05-10T15:04:33.743Z,101826.72
2023-05-10T15:07:05.896Z,101818.69
2023-05-10T15:09:33.430Z,101808.13
2023-05-10T15:12:04.845Z,101821.41
2023-05-10T15:14:34.719Z,101817.84
2023-05-10T15:17:03.237Z,101824.88
2023-05-10T15:19:31.085Z,101822.25
2023-05-10T15:21:59.009Z,101823.09
2023-05-10T15:24:26.583Z,101818.66
2023-05-10T15:26:54.263Z,101821.34
2023-05-10T15:29:24.390Z,101814.25
2023-05-10T15:31:52.572Z,101826.63
2023-05-10T15:34:19.818Z,101823.97
2023-05-10T15:36:46.872Z,101818.66
2023-05-10T15:39:14.102Z,101814.25
2023-05-10T15:41:41.660Z,101826.63
2023-05-10T15:44:09.138Z,101821.25
2023-05-10T15:46:39.684Z,101819.50
2023-05-10T15:49:08.346Z,101819.50
2023-05-10T15:51:37.132Z,101817.72
2023-05-10T15:54:08.401Z,101820.41
2023-05-10T15:56:36.061Z,101809.81
2023-05-10T15:59:04.980Z,101824.75
2023-05-10T16:01:33.650Z,101824.75
2023-05-10T16:04:01.677Z,101839.78
2023-05-10T16:06:28.757Z,101818.69
2023-05-10T16:08:58.864Z,101829.28
2023-05-10T16:11:27.169Z,101821.38
2023-05-10T16:13:54.963Z,101826.72
2023-05-10T16:16:22.184Z,101832.00
2023-05-10T16:18:49.436Z,101825.78
2023-05-10T16:21:16.830Z,101845.25
2023-05-10T16:23:48.553Z,101850.53
2023-05-10T16:26:15.864Z,101848.78
2023-05-10T16:28:42.982Z,101847.84
2023-05-10T16:31:10.138Z,101853.06
2023-05-10T16:33:37.567Z,101848.56
2023-05-10T16:36:06.575Z,101850.38
2023-05-10T16:38:33.722Z,101841.50
2023-05-10T16:41:04.029Z,101845.94
2023-05-10T16:43:34.058Z,101853.91
2023-05-10T16:46:01.224Z,101845.94
2023-05-10T16:48:28.471Z,101846.81
2023-05-10T16:50:56.340Z,101852.94
2023-05-10T16:53:24.437Z,101852.09
2023-05-10T16:55:51.978Z,101853.84
2023-05-10T16:58:28.715Z,101852.91
2023-05-10T17:00:56.607Z,101846.72
2023-05-10T17:03:29.316Z,101843.97
2023-05-10T17:05:57.121Z,101847.47
2023-05-10T17:08:25.185Z,101845.72
2023-05-10T17:10:52.992Z,101844.78
2023-05-10T17:13:20.368Z,101848.22
2023-05-10T17:15:51.890Z,101856.16
2023-05-10T17:18:23.388Z,101848.19
2023-05-10T17:20:52.269Z,101856.09
2023-05-10T17:23:19.879Z,101854.22
2023-05-10T17:25:47.749Z,101851.53
2023-05-10T17:28:17.787Z,101844.53
2023-05-10T17:30:45.029Z,101843.59
2023-05-10T17:33:12.647Z,101852.31
2023-05-10T17:35:40.751Z,101849.69
2023-05-10T17:38:08.318Z,101847.84
2023-05-10T17:40:36.668Z,101853.19
2023-05-10T17:43:10.529Z,101853.97
2023-05-10T17:45:38.258Z,101856.59
2023-05-10T17:48:09.536Z,101859.19
2023-05-10T17:50:37.551Z,101849.50
2023-05-10T17:53:05.793Z,101854.75
2023-05-10T17:55:33.816Z,101857.19
2023-05-10T17:58:03.101Z,101850.97
2023-05-10T18:00:30.833Z,101851.00
2023-05-10T18:02:58.020Z,101860.56
2023-05-10T18:05:25.392Z,101855.31
2023-05-10T18:07:53.820Z,101851.91
2023-05-10T18:10:21.302Z,101858.88
2023-05-10T18:12:50.183Z,101857.03
2023-05-10T18:15:17.706Z,101850.00
2023-05-10T18:17:44.929Z,101849.84
2023-05-10T18:20:12.236Z,101852.59
2023-05-10T18:22:40.254Z,101856.03
2023-05-10T18:25:08.080Z,101860.47
2023-05-10T18:27:35.338Z,101863.94
2023-05-10T18:30:02.560Z,101856.66
2023-05-10T18:32:29.657Z,101856.56
2023-05-10T18:34:57.510Z,101853.88
2023-05-10T18:37:24.524Z,101859.13
2023-05-10T18:39:51.928Z,101859.00
2023-05-10T18:42:21.069Z,101865.13
2023-05-10T18:44:48.107Z,101858.84
2023-05-10T18:47:15.277Z,101860.50
2023-05-10T18:49:42.557Z,101866.50
2023-05-10T18:52:11.867Z,101865.47
2023-05-10T18:54:44.512Z,101871.53
2023-05-10T18:57:13.098Z,101868.81
2023-05-10T18:59:41.003Z,101869.41
2023-05-10T19:02:08.341Z,101873.69
2023-05-10T19:04:36.097Z,101863.94
2023-05-10T19:07:07.128Z,101870.72
2023-05-10T19:09:34.750Z,101875.88
2023-05-10T19:12:02.678Z,101875.72
2023-05-10T19:14:30.448Z,101880.88
2023-05-10T19:16:57.649Z,101883.34
2023-05-10T19:19:25.670Z,101876.19
2023-05-10T19:21:55.120Z,101875.91
2023-05-10T19:24:25.354Z,101887.13
2023-05-10T19:26:52.752Z,101882.56
2023-05-10T19:29:20.343Z,101891.19
2023-05-10T19:31:49.246Z,101886.91
2023-05-10T19:34:17.455Z,101891.28
2023-05-10T19:36:45.257Z,101894.00
2023-05-10T19:39:13.460Z,101897.41
2023-05-10T19:41:40.726Z,101902.69
2023-05-10T19:44:08.836Z,101911.41
2023-05-10T19:46:36.686Z,101913.09
2023-05-10T19:49:04.476Z,101911.28
2023-05-10T19:51:31.666Z,101911.31
2023-05-10T19:53:58.856Z,101912.00
2023-05-10T19:56:27.631Z,101905.75
2023-05-10T19:58:54.724Z,101916.00
2023-05-10T20:01:21.967Z,101918.50
2023-05-10T20:03:49.450Z,101927.03
2023-05-10T20:06:16.445Z,101920.88
2023-05-10T20:08:44.290Z,101922.47
2023-05-10T20:11:11.639Z,101920.72
2023-05-10T20:13:38.871Z,101924.97
2023-05-10T20:16:07.379Z,101931.00
2023-05-10T20:18:34.945Z,101927.44
2023-05-10T20:21:02.111Z,101926.38
2023-05-10T20:23:29.291Z,101932.47
2023-05-10T20:25:56.251Z,101933.28
2023-05-10T20:28:24.482Z,101932.34
2023-05-10T20:30:53.275Z,101937.59
2023-05-10T20:33:20.653Z,101935.63
2023-05-10T20:35:47.958Z,101939.91
2023-05-10T20:38:14.935Z,101942.53
2023-05-10T20:40:42.359Z,101944.19
2023-05-10T20:43:10.999Z,101943.25
2023-05-10T20:45:39.976Z,101941.56
2023-05-10T20:48:08.844Z,101940.53
2023-05-10T20:50:36.810Z,101941.25
2023-05-10T20:53:06.792Z,101940.31
2023-05-10T20:55:38.371Z,101930.53
2023-05-10T20:58:08.693Z,101937.59
2023-05-10T21:00:36.482Z,101940.03
2023-05-10T21:03:06.915Z,101937.41
2023-05-10T21:05:35.291Z,101931.22
2023-05-10T21:08:02.622Z,101932.78
2023-05-10T21:10:29.768Z,101939.72
2023-05-10T21:12:57.520Z,101930.88
2023-05-10T21:15:29.213Z,101933.50
2023-05-10T21:17:56.802Z,101934.19
2023-05-10T21:20:24.800Z,101942.09
2023-05-10T21:22:51.755Z,101935.13
2023-05-10T21:25:19.065Z,101934.34
2023-05-10T21:27:46.490Z,101939.78
2023-05-10T21:30:14.618Z,101930.16
2023-05-10T21:32:43.453Z,101929.28
2023-05-10T21:35:10.971Z,101923.13
2023-05-10T21:37:38.276Z,101920.47
2023-05-10T21:40:06.125Z,101919.63
2023-05-10T21:42:33.606Z,101917.75
2023-05-10T21:45:01.127Z,101918.50
2023-05-10T21:47:28.640Z,101912.38
2023-05-10T21:49:55.943Z,101907.09
2023-05-10T21:52:23.098Z,101913.00
2023-05-10T21:54:50.074Z,101915.50
2023-05-10T21:57:17.085Z,101914.50
2023-05-10T21:59:44.259Z,101914.31
2023-05-10T22:02:11.503Z,101912.38
2023-05-10T22:04:38.541Z,101907.78
2023-05-10T22:07:06.102Z,101906.81
2023-05-10T22:09:33.218Z,101915.09
2023-05-10T22:12:00.340Z,101905.25
2023-05-10T22:14:27.573Z,101904.09
2023-05-10T22:16:54.898Z,101908.50
2023-05-10T22:19:21.885Z,101910.13
2023-05-10T22:21:49.045Z,101907.50
2023-05-10T22:24:16.549Z,101908.13
2023-05-10T22:26:47.338Z,101900.06
2023-05-10T22:29:16.133Z,101904.25
2023-05-10T22:31:44.000Z,101911.72
2023-05-10T22:34:11.221Z,101906.34
2023-05-10T22:36:38.448Z,101911.41
2023-05-10T22:39:05.532Z,101911.47
2023-05-10T22:41:35.084Z,101921.16
2023-05-10T22:44:08.645Z,101923.03
2023-05-10T22:46:37.817Z,101920.41
2023-05-10T22:49:04.936Z,101921.47
2023-05-10T22:51:34.983Z,101915.41
2023-05-10T22:54:02.275Z,101922.38
2023-05-10T22:56:29.622Z,101923.22
2023-05-10T22:58:57.502Z,101922.31
2023-05-10T23:01:24.714Z,101924.16
2023-05-10T23:03:52.036Z,101921.59
2023-05-10T23:06:19.344Z,101919.75
2023-05-10T23:08:46.455Z,101926.72
2023-05-10T23:11:13.409Z,101918.09
2023-05-10T23:13:40.516Z,101928.56
2023-05-10T23:16:10.092Z,101923.31
2023-05-10T23:18:37.535Z,101912.06
2023-05-10T23:21:04.876Z,101915.41
2023-05-10T23:23:34.433Z,101925.84
2023-05-10T23:26:01.973Z,101920.75
2023-05-10T23:28:29.894Z,101904.94
2023-05-10T23:30:58.189Z,101905.00
2023-05-10T23:33:25.725Z,101902.38
2023-05-10T23:35:53.655Z,101891.09
2023-05-10T23:38:20.968Z,101895.44
2023-05-10T23:40:48.896Z,101889.88
2023-05-10T23:43:16.599Z,101894.78
2023-05-10T23:45:44.070Z,101893.97
2023-05-10T23:48:11.413Z,101892.97
2023-05-10T23:50:38.631Z,101890.13
2023-05-10T23:53:05.805Z,101890.94
2023-05-10T23:55:32.742Z,101885.56
2023-05-10T23:58:00.116Z,101889.78
